Adair Village, OR

1:08 AM PDT on September 21, 2014 (GMT -0700)
NW Corvallis | Change Station
CLOSE
Current Station
Personal Weather Station
Location: Corvallis, OR
Elevation: 400 ft
Nearby Weather Stations

Elev 400 ft 44.59 °N, 123.29 °W | Updated 3 minutes ago

Clear
Clear
68.8 °F
Feels Like 68.8 °F
N
0.0
Wind Variable Wind from SW
Gusts 1.0 mph

Today
High -- | Low -- °F
--% Chance of Precip.
Yesterday
High -- | Low -- °F
Precip. -- in
6:59 AM 7:12 PM
Waning Crescent, 8% visible
Pressure 29.87 in
Visibility 10.0 miles
Clouds Clear
Dew Point 24 °F
Humidity 18%
Rainfall 0.00 in
Snow Depth Not available.
UV 0 out of 12
Pollen 2.40 out of 12
Ozone Good
PM2.5 Moderate
Flu Activity Not available.
METAR KCVO 210755Z AUTO 29009KT 10SM CLR 18/13 A2987 RMK AO1

More Conditions Fewer Conditions

Pressure 29.87 in
Visibility 10.0 miles
Clouds Clear
Dew Point 24 °F
Humidity 18%
Rainfall 0.00 in
Snow Depth Not available.
UV 0 out of 12
Pollen 2.40 out of 12
Ozone Good
PM2.5 Moderate
Flu Activity Not available.
METAR KCVO 210755Z AUTO 29009KT 10SM CLR 18/13 A2987 RMK AO1

More Conditions Fewer Conditions

10-Day Weather Forecast

Almanac

Astronomy

Sep. 21, 2014 Rise Set
Actual Time 6:59 AM PDT 7:12 PM PDT
Civil Twilight 6:30 AM PDT 7:41 PM PDT
Nautical Twilight 5:55 AM PDT 8:15 PM PDT
Astronomical Twilight 5:20 AM PDT 8:50 PM PDT
Moon 4:33 AM PDT 5:54 PM PDT
Length of Visible Light 13h 11m
Length of Day
12h 13m
Tomorrow will be 3m 4s shorter.
Waning Crescent, 8% of the Moon is Illuminated
Today
Waning Crescent
Sep 24
New
Oct 1
First Quarter
Oct 8
Full
Oct 15
Last Quarter

Today's Extremes

State Highs State Lows

Community

WunderPhotos

Upload Photos

1,755,101 photos uploaded!

Nearby

Air Quality

  Air Quality AQ Index Pollutant
Yesterday Good
PM2.5
Yesterday Good
OZONE
Current Moderate
PM2.5
Current Good
OZONE
Saturday Moderate
PM2.5
Sunday Moderate
PM2.5

Snow Depth

Station Depth Elevation
Blazed Alder 0 in 3650 ft
Schneider Meadows 1 in 5400 ft
Cold Springs Camp 0 in 6100 ft
Mt. Howard 1 in 7910 ft
North Fork 0 in 3120 ft

Earthquake Activity

City Distance Mag. Time & Date
No recent earthquake activity has been reported nearby.
Minimum magnitude displayed is 2.5.

Coastal Water Temperatures

Place Temperature
No Stations Reporting

Nearby Weather Stations